sensor_id;sensor_type;location;lat;lon;timestamp;pressure;altitude;pressure_sealevel;temperature;humidity
75933;BME280;64803;52.356;5.310;2023-03-01T00:01:59;103624.34;;;-0.35;100.00
75933;BME280;64803;52.356;5.310;2023-03-01T00:04:25;103607.81;;;-0.41;100.00
75933;BME280;64803;52.356;5.310;2023-03-01T00:06:51;103610.16;;;-0.31;100.00
75933;BME280;64803;52.356;5.310;2023-03-01T00:09:17;103624.28;;;-0.32;100.00
75933;BME280;64803;52.356;5.310;2023-03-01T00:11:43;103585.28;;;-0.54;100.00
75933;BME280;64803;52.356;5.310;2023-03-01T00:14:09;103615.91;;;-0.49;100.00
75933;BME280;64803;52.356;5.310;2023-03-01T00:16:38;103610.34;;;-0.70;100.00
75933;BME280;64803;52.356;5.310;2023-03-01T00:19:06;103624.41;;;-0.70;100.00
75933;BME280;64803;52.356;5.310;2023-03-01T00:21:32;103603.63;;;-0.83;100.00
75933;BME280;64803;52.356;5.310;2023-03-01T00:23:59;103609.94;;;-0.90;100.00
75933;BME280;64803;52.356;5.310;2023-03-01T00:26:25;103607.66;;;-1.04;100.00
75933;BME280;64803;52.356;5.310;2023-03-01T00:28:52;103609.41;;;-1.04;100.00
75933;BME280;64803;52.356;5.310;2023-03-01T00:31:23;103609.34;;;-1.01;100.00
75933;BME280;64803;52.356;5.310;2023-03-01T00:33:53;103601.19;;;-0.91;100.00
75933;BME280;64803;52.356;5.310;2023-03-01T00:36:24;103600.13;;;-0.84;100.00
75933;BME280;64803;52.356;5.310;2023-03-01T00:38:51;103602.66;;;-0.79;100.00
75933;BME280;64803;52.356;5.310;2023-03-01T00:41:21;103587.44;;;-1.03;100.00
75933;BME280;64803;52.356;5.310;2023-03-01T00:43:49;103603.72;;;-1.23;100.00
75933;BME280;64803;52.356;5.310;2023-03-01T00:46:17;103606.06;;;-1.49;100.00
75933;BME280;64803;52.356;5.310;2023-03-01T00:48:44;103602.13;;;-1.70;100.00
75933;BME280;64803;52.356;5.310;2023-03-01T00:51:23;103625.34;;;-1.90;100.00
75933;BME280;64803;52.356;5.310;2023-03-01T00:53:54;103595.91;;;-2.08;100.00
75933;BME280;64803;52.356;5.310;2023-03-01T00:56:21;103595.94;;;-2.10;100.00
75933;BME280;64803;52.356;5.310;2023-03-01T00:58:47;103599.34;;;-2.05;100.00
75933;BME280;64803;52.356;5.310;2023-03-01T01:01:22;103591.53;;;-2.08;100.00
75933;BME280;64803;52.356;5.310;2023-03-01T01:03:54;103588.94;;;-2.11;100.00
75933;BME280;64803;52.356;5.310;2023-03-01T01:06:40;103583.06;;;-2.23;100.00
75933;BME280;64803;52.356;5.310;2023-03-01T01:09:16;103592.72;;;-2.24;100.00
75933;BME280;64803;52.356;5.310;2023-03-01T01:11:44;103587.53;;;-2.30;100.00
75933;BME280;64803;52.356;5.310;2023-03-01T01:14:11;103602.53;;;-2.34;100.00
75933;BME280;64803;52.356;5.310;2023-03-01T01:16:37;103584.19;;;-2.38;100.00
75933;BME280;64803;52.356;5.310;2023-03-01T01:19:03;103582.44;;;-2.38;100.00
75933;BME280;64803;52.356;5.310;2023-03-01T01:21:29;103583.41;;;-2.42;100.00
75933;BME280;64803;52.356;5.310;2023-03-01T01:23:56;103579.16;;;-2.50;100.00
75933;BME280;64803;52.356;5.310;2023-03-01T01:26:29;103538.50;;;-2.78;100.00
75933;BME280;64803;52.356;5.310;2023-03-01T01:28:55;103572.38;;;-2.63;100.00
75933;BME280;64803;52.356;5.310;2023-03-01T01:31:22;103576.00;;;-2.70;100.00
75933;BME280;64803;52.356;5.310;2023-03-01T01:33:52;103566.47;;;-2.74;100.00
75933;BME280;64803;52.356;5.310;2023-03-01T01:36:19;103490.09;;;-3.17;100.00
75933;BME280;64803;52.356;5.310;2023-03-01T01:38:45;103574.19;;;-2.65;100.00
75933;BME280;64803;52.356;5.310;2023-03-01T01:41:12;103569.88;;;-2.69;100.00
75933;BME280;64803;52.356;5.310;2023-03-01T01:43:47;103560.44;;;-2.79;100.00
75933;BME280;64803;52.356;5.310;2023-03-01T01:48:49;103539.56;;;-2.88;100.00
75933;BME280;64803;52.356;5.310;2023-03-01T01:51:21;103555.31;;;-2.88;100.00
75933;BME280;64803;52.356;5.310;2023-03-01T01:53:53;103551.91;;;-2.93;100.00
75933;BME280;64803;52.356;5.310;2023-03-01T01:56:21;103490.38;;;-3.32;100.00
75933;BME280;64803;52.356;5.310;2023-03-01T01:58:49;103553.69;;;-2.95;100.00
75933;BME280;64803;52.356;5.310;2023-03-01T02:01:16;103552.00;;;-2.99;100.00
75933;BME280;64803;52.356;5.310;2023-03-01T02:03:43;103548.59;;;-3.04;100.00
75933;BME280;64803;52.356;5.310;2023-03-01T02:06:15;103552.97;;;-3.05;100.00
75933;BME280;64803;52.356;5.310;2023-03-01T02:08:45;103550.28;;;-3.00;100.00
75933;BME280;64803;52.356;5.310;2023-03-01T02:11:13;103551.16;;;-3.01;100.00
75933;BME280;64803;52.356;5.310;2023-03-01T02:13:42;103528.59;;;-3.13;100.00
75933;BME280;64803;52.356;5.310;2023-03-01T02:16:11;103543.41;;;-3.09;100.00
75933;BME280;64803;52.356;5.310;2023-03-01T02:18:40;103546.88;;;-3.08;100.00
75933;BME280;64803;52.356;5.310;2023-03-01T02:23:53;103527.69;;;-3.10;100.00
75933;BME280;64803;52.356;5.310;2023-03-01T02:26:46;103295.44;;;-4.51;100.00
75933;BME280;64803;52.356;5.310;2023-03-01T02:29:14;103526.03;;;-3.17;100.00
75933;BME280;64803;52.356;5.310;2023-03-01T02:31:40;103532.94;;;-3.10;100.00
75933;BME280;64803;52.356;5.310;2023-03-01T02:34:21;103521.66;;;-3.18;100.00
75933;BME280;64803;52.356;5.310;2023-03-01T02:37:04;103530.50;;;-3.24;100.00
75933;BME280;64803;52.356;5.310;2023-03-01T02:39:34;103513.97;;;-3.30;100.00
75933;BME280;64803;52.356;5.310;2023-03-01T02:42:04;103451.63;;;-3.73;100.00
75933;BME280;64803;52.356;5.310;2023-03-01T02:44:30;103519.19;;;-3.27;100.00
75933;BME280;64803;52.356;5.310;2023-03-01T02:46:56;103517.50;;;-3.31;100.00
75933;BME280;64803;52.356;5.310;2023-03-01T02:49:31;103505.38;;;-3.38;100.00
75933;BME280;64803;52.356;5.310;2023-03-01T02:52:32;103523.66;;;-3.34;100.00
75933;BME280;64803;52.356;5.310;2023-03-01T02:55:04;103519.34;;;-3.36;100.00
75933;BME280;64803;52.356;5.310;2023-03-01T02:57:33;103517.59;;;-3.37;100.00
75933;BME280;64803;52.356;5.310;2023-03-01T03:00:04;103455.97;;;-3.70;100.00
75933;BME280;64803;52.356;5.310;2023-03-01T03:02:36;103514.19;;;-3.42;100.00
75933;BME280;64803;52.356;5.310;2023-03-01T03:05:18;103512.47;;;-3.47;100.00
75933;BME280;64803;52.356;5.310;2023-03-01T03:07:47;103511.69;;;-3.52;100.00
75933;BME280;64803;52.356;5.310;2023-03-01T03:10:17;103507.34;;;-3.53;100.00
75933;BME280;64803;52.356;5.310;2023-03-01T03:12:50;103489.94;;;-3.60;100.00
75933;BME280;64803;52.356;5.310;2023-03-01T03:15:16;103493.41;;;-3.59;100.00
75933;BME280;64803;52.356;5.310;2023-03-01T03:17:43;103503.88;;;-3.55;100.00
75933;BME280;64803;52.356;5.310;2023-03-01T03:20:12;103497.63;;;-3.48;100.00
75933;BME280;64803;52.356;5.310;2023-03-01T03:22:39;103494.94;;;-3.45;100.00
75933;BME280;64803;52.356;5.310;2023-03-01T03:25:07;103483.56;;;-3.43;100.00
75933;BME280;64803;52.356;5.310;2023-03-01T03:27:37;103463.50;;;-3.48;100.00
75933;BME280;64803;52.356;5.310;2023-03-01T03:30:05;103481.69;;;-3.35;100.00
75933;BME280;64803;52.356;5.310;2023-03-01T03:32:42;103479.94;;;-3.38;100.00
75933;BME280;64803;52.356;5.310;2023-03-01T03:35:26;103304.09;;;-4.43;100.00
75933;BME280;64803;52.356;5.310;2023-03-01T03:37:52;103446.97;;;-3.56;100.00
75933;BME280;64803;52.356;5.310;2023-03-01T03:40:36;103468.72;;;-3.46;100.00
75933;BME280;64803;52.356;5.310;2023-03-01T03:43:04;103474.94;;;-3.52;100.00
75933;BME280;64803;52.356;5.310;2023-03-01T03:45:31;103473.25;;;-3.54;100.00
75933;BME280;64803;52.356;5.310;2023-03-01T03:47:59;103476.78;;;-3.58;100.00
75933;BME280;64803;52.356;5.310;2023-03-01T03:50:26;103316.41;;;-4.51;100.00
75933;BME280;64803;52.356;5.310;2023-03-01T03:52:52;103461.22;;;-3.70;100.00
75933;BME280;64803;52.356;5.310;2023-03-01T03:55:18;103473.44;;;-3.66;100.00
75933;BME280;64803;52.356;5.310;2023-03-01T03:57:46;103472.44;;;-3.61;100.00
75933;BME280;64803;52.356;5.310;2023-03-01T04:00:21;103470.66;;;-3.59;100.00
75933;BME280;64803;52.356;5.310;2023-03-01T04:02:50;103467.19;;;-3.61;100.00
75933;BME280;64803;52.356;5.310;2023-03-01T04:05:18;103469.97;;;-3.68;100.00
75933;BME280;64803;52.356;5.310;2023-03-01T04:07:44;103466.47;;;-3.70;100.00
75933;BME280;64803;52.356;5.310;2023-03-01T04:10:13;103470.88;;;-3.72;100.00
75933;BME280;64803;52.356;5.310;2023-03-01T04:12:40;103471.75;;;-3.72;100.00
75933;BME280;64803;52.356;5.310;2023-03-01T04:15:07;103396.28;;;-4.14;100.00
75933;BME280;64803;52.356;5.310;2023-03-01T04:17:44;103466.59;;;-3.78;100.00
75933;BME280;64803;52.356;5.310;2023-03-01T04:20:16;103469.28;;;-3.81;100.00
75933;BME280;64803;52.356;5.310;2023-03-01T04:22:56;103478.00;;;-3.82;100.00
75933;BME280;64803;52.356;5.310;2023-03-01T04:25:25;103483.22;;;-3.77;100.00
75933;BME280;64803;52.356;5.310;2023-03-01T04:27:51;103478.84;;;-3.77;100.00
75933;BME280;64803;52.356;5.310;2023-03-01T04:30:17;103470.06;;;-3.76;100.00
75933;BME280;64803;52.356;5.310;2023-03-01T04:32:43;103460.47;;;-3.77;100.00
75933;BME280;64803;52.356;5.310;2023-03-01T04:35:09;103462.22;;;-3.77;100.00
75933;BME280;64803;52.356;5.310;2023-03-01T04:37:35;103437.09;;;-3.93;100.00
75933;BME280;64803;52.356;5.310;2023-03-01T04:40:04;103459.63;;;-3.82;100.00
75933;BME280;64803;52.356;5.310;2023-03-01T04:42:41;103462.31;;;-3.85;100.00
75933;BME280;64803;52.356;5.310;2023-03-01T04:45:08;103462.44;;;-3.91;100.00
75933;BME280;64803;52.356;5.310;2023-03-01T04:47:43;103443.41;;;-4.08;100.00
75933;BME280;64803;52.356;5.310;2023-03-01T04:50:11;103461.53;;;-3.91;100.00
75933;BME280;64803;52.356;5.310;2023-03-01T04:52:38;103462.44;;;-3.94;100.00
75933;BME280;64803;52.356;5.310;2023-03-01T04:55:05;103466.00;;;-3.96;100.00
75933;BME280;64803;52.356;5.310;2023-03-01T04:57:31;103455.56;;;-4.01;100.00
75933;BME280;64803;52.356;5.310;2023-03-01T04:59:57;103451.19;;;-4.02;100.00
75933;BME280;64803;52.356;5.310;2023-03-01T05:02:24;103446.00;;;-4.05;100.00
75933;BME280;64803;52.356;5.310;2023-03-01T05:04:50;103443.41;;;-4.08;100.00
75933;BME280;64803;52.356;5.310;2023-03-01T05:07:16;103455.69;;;-4.11;100.00
75933;BME280;64803;52.356;5.310;2023-03-01T05:09:46;103433.13;;;-4.23;100.00
75933;BME280;64803;52.356;5.310;2023-03-01T05:12:13;103448.69;;;-4.11;100.00
75933;BME280;64803;52.356;5.310;2023-03-01T05:14:39;103427.59;;;-4.02;100.00
75933;BME280;64803;52.356;5.310;2023-03-01T05:17:05;103430.88;;;-3.88;100.00
75933;BME280;64803;52.356;5.310;2023-03-01T05:19:32;103424.00;;;-3.95;100.00
75933;BME280;64803;52.356;5.310;2023-03-01T05:21:58;103430.94;;;-3.92;100.00
75933;BME280;64803;52.356;5.310;2023-03-01T05:24:28;103294.06;;;-4.75;100.00
75933;BME280;64803;52.356;5.310;2023-03-01T05:26:54;103423.94;;;-3.92;100.00
75933;BME280;64803;52.356;5.310;2023-03-01T05:29:22;103411.78;;;-3.99;100.00
75933;BME280;64803;52.356;5.310;2023-03-01T05:31:55;103417.06;;;-4.00;100.00
75933;BME280;64803;52.356;5.310;2023-03-01T05:34:30;103262.91;;;-4.96;100.00
75933;BME280;64803;52.356;5.310;2023-03-01T05:36:57;103419.84;;;-4.11;100.00
75933;BME280;64803;52.356;5.310;2023-03-01T05:39:26;103400.84;;;-4.26;100.00
75933;BME280;64803;52.356;5.310;2023-03-01T05:41:54;103413.06;;;-4.24;100.00
75933;BME280;64803;52.356;5.310;2023-03-01T05:44:21;103401.72;;;-4.26;100.00
75933;BME280;64803;52.356;5.310;2023-03-01T05:46:47;103406.06;;;-4.25;100.00
75933;BME280;64803;52.356;5.310;2023-03-01T05:49:13;103392.09;;;-4.27;100.00
75933;BME280;64803;52.356;5.310;2023-03-01T05:51:40;103397.41;;;-4.30;100.00
75933;BME280;64803;52.356;5.310;2023-03-01T05:54:07;103387.00;;;-4.36;100.00
75933;BME280;64803;52.356;5.310;2023-03-01T05:56:34;103403.50;;;-4.28;100.00
75933;BME280;64803;52.356;5.310;2023-03-01T05:59:01;103383.53;;;-4.38;100.00
75933;BME280;64803;52.356;5.310;2023-03-01T06:01:27;103401.78;;;-4.32;100.00
75933;BME280;64803;52.356;5.310;2023-03-01T06:03:53;103374.84;;;-4.41;100.00
75933;BME280;64803;52.356;5.310;2023-03-01T06:06:19;103406.00;;;-4.20;100.00
75933;BME280;64803;52.356;5.310;2023-03-01T06:08:45;103398.06;;;-4.16;100.00
75933;BME280;64803;52.356;5.310;2023-03-01T06:11:11;103190.88;;;-5.27;100.00
75933;BME280;64803;52.356;5.310;2023-03-01T06:13:37;103387.50;;;-4.10;100.00
75933;BME280;64803;52.356;5.310;2023-03-01T06:16:07;103355.44;;;-4.30;100.00
75933;BME280;64803;52.356;5.310;2023-03-01T06:18:33;103387.50;;;-4.11;100.00
75933;BME280;64803;52.356;5.310;2023-03-01T06:20:59;103391.75;;;-4.01;100.00
75933;BME280;64803;52.356;5.310;2023-03-01T06:23:25;103403.66;;;-3.81;100.00
75933;BME280;64803;52.356;5.310;2023-03-01T06:25:51;103397.88;;;-3.49;100.00
75933;BME280;64803;52.356;5.310;2023-03-01T06:28:17;103409.75;;;-3.28;100.00
75933;BME280;64803;52.356;5.310;2023-03-01T06:30:43;103398.31;;;-3.24;100.00
75933;BME280;64803;52.356;5.310;2023-03-01T06:33:10;103408.75;;;-3.21;100.00
75933;BME280;64803;52.356;5.310;2023-03-01T06:35:36;103409.59;;;-3.19;100.00
75933;BME280;64803;52.356;5.310;2023-03-01T06:38:03;103378.19;;;-3.25;100.00
75933;BME280;64803;52.356;5.310;2023-03-01T06:40:30;103411.59;;;-2.86;100.00
75933;BME280;64803;52.356;5.310;2023-03-01T06:42:57;103410.41;;;-2.72;100.00
75933;BME280;64803;52.356;5.310;2023-03-01T06:45:24;103414.81;;;-2.72;100.00
75933;BME280;64803;52.356;5.310;2023-03-01T06:47:50;103405.09;;;-2.70;100.00
75933;BME280;64803;52.356;5.310;2023-03-01T06:50:17;103406.03;;;-2.71;100.00
75933;BME280;64803;52.356;5.310;2023-03-01T06:52:43;103404.34;;;-2.75;100.00
75933;BME280;64803;52.356;5.310;2023-03-01T06:55:11;103404.22;;;-2.69;100.00
75933;BME280;64803;52.356;5.310;2023-03-01T06:57:37;103380.72;;;-2.77;100.00
75933;BME280;64803;52.356;5.310;2023-03-01T07:00:05;103407.53;;;-2.60;100.00
75933;BME280;64803;52.356;5.310;2023-03-01T07:02:31;103407.56;;;-2.61;100.00
75933;BME280;64803;52.356;5.310;2023-03-01T07:04:57;103409.31;;;-2.60;100.00
75933;BME280;64803;52.356;5.310;2023-03-01T07:07:23;103418.03;;;-2.58;100.00
75933;BME280;64803;52.356;5.310;2023-03-01T07:09:49;103345.53;;;-3.12;100.00
75933;BME280;64803;52.356;5.310;2023-03-01T07:12:16;103415.69;;;-2.73;100.00
75933;BME280;64803;52.356;5.310;2023-03-01T07:14:43;103427.19;;;-2.79;100.00
75933;BME280;64803;52.356;5.310;2023-03-01T07:17:09;103420.19;;;-2.78;100.00
75933;BME280;64803;52.356;5.310;2023-03-01T07:19:35;103425.34;;;-2.72;100.00
75933;BME280;64803;52.356;5.310;2023-03-01T07:22:03;103423.53;;;-2.72;100.00
75933;BME280;64803;52.356;5.310;2023-03-01T07:24:29;103432.31;;;-2.71;100.00
75933;BME280;64803;52.356;5.310;2023-03-01T07:26:55;103428.91;;;-2.76;100.00
75933;BME280;64803;52.356;5.310;2023-03-01T07:29:21;103421.97;;;-2.80;100.00
75933;BME280;64803;52.356;5.310;2023-03-01T07:31:47;103416.63;;;-2.76;100.00
75933;BME280;64803;52.356;5.310;2023-03-01T07:34:13;103432.94;;;-2.59;100.00
75933;BME280;64803;52.356;5.310;2023-03-01T07:36:39;103426.72;;;-2.56;100.00
75933;BME280;64803;52.356;5.310;2023-03-01T07:39:10;103427.91;;;-2.69;100.00
75933;BME280;64803;52.356;5.310;2023-03-01T07:41:36;103396.63;;;-2.83;100.00
75933;BME280;64803;52.356;5.310;2023-03-01T07:44:03;103286.50;;;-3.39;100.00
75933;BME280;64803;52.356;5.310;2023-03-01T07:46:29;103430.97;;;-2.49;100.00
75933;BME280;64803;52.356;5.310;2023-03-01T07:48:55;103431.78;;;-2.44;100.00
75933;BME280;64803;52.356;5.310;2023-03-01T07:51:21;103435.28;;;-2.45;100.00
75933;BME280;64803;52.356;5.310;2023-03-01T07:53:47;103439.06;;;-2.58;100.00
75933;BME280;64803;52.356;5.310;2023-03-01T07:56:14;103435.53;;;-2.57;100.00
75933;BME280;64803;52.356;5.310;2023-03-01T07:58:42;103426.50;;;-2.46;100.00
75933;BME280;64803;52.356;5.310;2023-03-01T08:01:11;103422.06;;;-2.42;100.00
75933;BME280;64803;52.356;5.310;2023-03-01T08:03:38;103429.91;;;-2.39;100.00
75933;BME280;64803;52.356;5.310;2023-03-01T08:06:07;103311.13;;;-3.00;100.00
75933;BME280;64803;52.356;5.310;2023-03-01T08:08:34;103421.63;;;-2.22;100.00
75933;BME280;64803;52.356;5.310;2023-03-01T08:11:02;103416.41;;;-2.24;100.00
75933;BME280;64803;52.356;5.310;2023-03-01T08:13:29;103420.97;;;-2.32;100.00
75933;BME280;64803;52.356;5.310;2023-03-01T08:16:10;103407.59;;;-2.21;100.00
75933;BME280;64803;52.356;5.310;2023-03-01T08:18:37;103412.84;;;-2.21;100.00
75933;BME280;64803;52.356;5.310;2023-03-01T08:21:08;103417.59;;;-1.99;100.00
75933;BME280;64803;52.356;5.310;2023-03-01T08:23:35;103420.91;;;-1.91;100.00
75933;BME280;64803;52.356;5.310;2023-03-01T08:28:40;103419.56;;;-1.72;100.00
75933;BME280;64803;52.356;5.310;2023-03-01T08:33:46;103295.28;;;-2.21;100.00
75933;BME280;64803;52.356;5.310;2023-03-01T08:36:17;103414.53;;;-1.46;100.00
75933;BME280;64803;52.356;5.310;2023-03-01T08:38:44;103396.25;;;-1.52;100.00
75933;BME280;64803;52.356;5.310;2023-03-01T08:41:10;103407.19;;;-1.33;100.00
75933;BME280;64803;52.356;5.310;2023-03-01T08:43:36;103377.31;;;-1.34;100.00
75933;BME280;64803;52.356;5.310;2023-03-01T08:46:02;103407.56;;;-1.15;100.00
75933;BME280;64803;52.356;5.310;2023-03-01T08:48:28;103380.59;;;-1.24;100.00
75933;BME280;64803;52.356;5.310;2023-03-01T08:50:55;103410.59;;;-0.97;100.00
75933;BME280;64803;52.356;5.310;2023-03-01T08:53:21;103410.97;;;-0.79;100.00
75933;BME280;64803;52.356;5.310;2023-03-01T08:55:47;103388.66;;;-0.67;100.00
75933;BME280;64803;52.356;5.310;2023-03-01T08:58:13;103393.91;;;-0.38;100.00
75933;BME280;64803;52.356;5.310;2023-03-01T09:00:39;103381.44;;;-0.32;100.00
75933;BME280;64803;52.356;5.310;2023-03-01T09:03:05;103387.81;;;-0.11;100.00
75933;BME280;64803;52.356;5.310;2023-03-01T09:05:33;103364.81;;;-0.08;100.00
75933;BME280;64803;52.356;5.310;2023-03-01T09:07:59;103378.81;;;0.22;100.00
75933;BME280;64803;52.356;5.310;2023-03-01T09:10:25;103384.91;;;0.50;100.00
75933;BME280;64803;52.356;5.310;2023-03-01T09:12:51;103389.47;;;0.71;100.00
75933;BME280;64803;52.356;5.310;2023-03-01T09:15:17;103378.56;;;0.80;100.00
75933;BME280;64803;52.356;5.310;2023-03-01T09:17:43;103288.25;;;0.43;100.00
75933;BME280;64803;52.356;5.310;2023-03-01T09:20:10;103376.09;;;1.00;100.00
75933;BME280;64803;52.356;5.310;2023-03-01T09:22:36;103362.69;;;1.05;100.00
75933;BME280;64803;52.356;5.310;2023-03-01T09:25:02;103361.16;;;1.23;100.00
75933;BME280;64803;52.356;5.310;2023-03-01T09:27:28;103294.72;;;1.07;100.00
75933;BME280;64803;52.356;5.310;2023-03-01T09:29:54;103349.75;;;1.44;100.00
75933;BME280;64803;52.356;5.310;2023-03-01T09:32:22;103359.09;;;1.75;100.00
75933;BME280;64803;52.356;5.310;2023-03-01T09:34:48;103335.66;;;1.88;100.00
75933;BME280;64803;52.356;5.310;2023-03-01T09:37:34;103336.06;;;1.99;100.00
75933;BME280;64803;52.356;5.310;2023-03-01T09:40:02;103317.41;;;2.02;100.00
75933;BME280;64803;52.356;5.310;2023-03-01T09:42:32;103357.41;;;2.38;100.00
75933;BME280;64803;52.356;5.310;2023-03-01T09:45:03;103354.38;;;2.47;100.00
75933;BME280;64803;52.356;5.310;2023-03-01T09:47:34;103358.19;;;2.61;100.00
75933;BME280;64803;52.356;5.310;2023-03-01T09:54:58;103352.88;;;2.81;95.42
75933;BME280;64803;52.356;5.310;2023-03-01T10:05:47;103350.56;;;3.12;90.91
75933;BME280;64803;52.356;5.310;2023-03-01T10:08:34;103344.59;;;3.27;93.92
75933;BME280;64803;52.356;5.310;2023-03-01T10:11:03;103343.56;;;3.30;90.82
75933;BME280;64803;52.356;5.310;2023-03-01T10:13:38;103344.66;;;3.44;90.32
75933;BME280;64803;52.356;5.310;2023-03-01T10:16:22;103340.94;;;3.49;88.50
75933;BME280;64803;52.356;5.310;2023-03-01T10:18:56;103320.75;;;3.44;89.38
75933;BME280;64803;52.356;5.310;2023-03-01T10:21:26;103338.50;;;3.63;87.29
75933;BME280;64803;52.356;5.310;2023-03-01T10:23:53;103334.59;;;3.70;85.33
75933;BME280;64803;52.356;5.310;2023-03-01T10:26:48;103324.94;;;3.86;83.34
75933;BME280;64803;52.356;5.310;2023-03-01T10:29:24;103321.50;;;3.84;81.11
75933;BME280;64803;52.356;5.310;2023-03-01T10:31:52;103330.53;;;3.98;81.28
75933;BME280;64803;52.356;5.310;2023-03-01T10:34:21;103330.38;;;4.01;80.23
75933;BME280;64803;52.356;5.310;2023-03-01T10:36:50;103325.06;;;4.01;75.45
75933;BME280;64803;52.356;5.310;2023-03-01T10:39:23;103249.56;;;3.70;79.26
75933;BME280;64803;52.356;5.310;2023-03-01T10:41:57;103321.41;;;4.21;76.80
75933;BME280;64803;52.356;5.310;2023-03-01T10:44:42;103227.22;;;3.74;78.18
75933;BME280;64803;52.356;5.310;2023-03-01T10:47:28;103310.06;;;4.17;73.11
75933;BME280;64803;52.356;5.310;2023-03-01T10:50:03;103319.56;;;4.40;76.86
75933;BME280;64803;52.356;5.310;2023-03-01T10:52:37;103303.28;;;4.46;73.06
75933;BME280;64803;52.356;5.310;2023-03-01T10:55:31;103310.09;;;4.51;78.68
75933;BME280;64803;52.356;5.310;2023-03-01T11:00:55;103310.16;;;4.67;72.08
75933;BME280;64803;52.356;5.310;2023-03-01T11:08:32;103289.72;;;4.68;69.33
75933;BME280;64803;52.356;5.310;2023-03-01T11:13:31;103274.41;;;4.88;72.15
75933;BME280;64803;52.356;5.310;2023-03-01T11:16:03;103283.25;;;4.89;71.72
75933;BME280;64803;52.356;5.310;2023-03-01T11:18:30;103265.94;;;4.97;72.34
75933;BME280;64803;52.356;5.310;2023-03-01T11:20:58;103263.84;;;5.19;74.60
75933;BME280;64803;52.356;5.310;2023-03-01T11:23:28;103268.88;;;5.08;69.79
75933;BME280;64803;52.356;5.310;2023-03-01T11:25:56;103233.75;;;5.17;68.40
75933;BME280;64803;52.356;5.310;2023-03-01T11:28:22;103257.81;;;5.16;70.11
75933;BME280;64803;52.356;5.310;2023-03-01T11:30:53;103257.38;;;5.08;71.70
75933;BME280;64803;52.356;5.310;2023-03-01T11:36:06;103246.03;;;5.20;69.35
75933;BME280;64803;52.356;5.310;2023-03-01T11:38:35;103247.31;;;5.28;65.80
75933;BME280;64803;52.356;5.310;2023-03-01T11:41:06;103236.16;;;5.37;68.60
75933;BME280;64803;52.356;5.310;2023-03-01T11:43:46;103236.06;;;5.54;71.71
75933;BME280;64803;52.356;5.310;2023-03-01T11:49:41;103196.63;;;5.45;67.07
75933;BME280;64803;52.356;5.310;2023-03-01T11:59:52;103220.31;;;5.65;68.15
75933;BME280;64803;52.356;5.310;2023-03-01T12:08:25;103222.94;;;5.97;66.17
75933;BME280;64803;52.356;5.310;2023-03-01T12:11:16;103233.03;;;5.92;64.33
75933;BME280;64803;52.356;5.310;2023-03-01T12:14:03;103235.84;;;6.04;65.51
75933;BME280;64803;52.356;5.310;2023-03-01T12:17:26;103233.28;;;6.03;63.52
75933;BME280;64803;52.356;5.310;2023-03-01T12:25:20;103205.66;;;6.18;63.77
75933;BME280;64803;52.356;5.310;2023-03-01T12:34:21;103209.47;;;6.00;61.74
75933;BME280;64803;52.356;5.310;2023-03-01T12:37:25;103197.97;;;6.13;63.84
75933;BME280;64803;52.356;5.310;2023-03-01T12:43:05;103195.38;;;6.12;61.87
75933;BME280;64803;52.356;5.310;2023-03-01T12:45:50;103192.13;;;6.21;62.65
75933;BME280;64803;52.356;5.310;2023-03-01T12:51:06;103175.69;;;6.28;64.15
75933;BME280;64803;52.356;5.310;2023-03-01T12:53:40;103191.78;;;6.27;64.20
75933;BME280;64803;52.356;5.310;2023-03-01T12:56:10;103194.09;;;6.33;62.15
75933;BME280;64803;52.356;5.310;2023-03-01T13:01:21;103179.41;;;6.40;63.33
75933;BME280;64803;52.356;5.310;2023-03-01T13:09:27;103162.06;;;6.33;59.63
75933;BME280;64803;52.356;5.310;2023-03-01T13:11:57;103171.13;;;6.58;61.51
75933;BME280;64803;52.356;5.310;2023-03-01T13:16:51;103137.88;;;6.36;60.06
75933;BME280;64803;52.356;5.310;2023-03-01T13:19:21;103157.69;;;6.46;58.77
75933;BME280;64803;52.356;5.310;2023-03-01T13:21:49;103142.44;;;6.62;60.54
75933;BME280;64803;52.356;5.310;2023-03-01T13:24:40;103140.53;;;6.64;60.03
75933;BME280;64803;52.356;5.310;2023-03-01T13:29:53;103129.75;;;6.65;61.20
75933;BME280;64803;52.356;5.310;2023-03-01T13:35:00;103129.84;;;6.64;57.68
75933;BME280;64803;52.356;5.310;2023-03-01T13:37:32;103128.41;;;6.72;57.12
75933;BME280;64803;52.356;5.310;2023-03-01T13:40:00;103127.91;;;6.66;57.19
75933;BME280;64803;52.356;5.310;2023-03-01T13:42:41;103121.44;;;6.70;57.31
75933;BME280;64803;52.356;5.310;2023-03-01T13:47:50;103110.66;;;6.71;59.29
75933;BME280;64803;52.356;5.310;2023-03-01T13:50:25;103116.66;;;6.75;58.08
75933;BME280;64803;52.356;5.310;2023-03-01T13:52:55;103101.22;;;6.66;56.35
75933;BME280;64803;52.356;5.310;2023-03-01T13:56:03;103098.53;;;6.80;56.60
75933;BME280;64803;52.356;5.310;2023-03-01T13:58:43;103101.56;;;6.88;59.15
75933;BME280;64803;52.356;5.310;2023-03-01T14:01:33;103092.34;;;6.79;58.26
75933;BME280;64803;52.356;5.310;2023-03-01T14:04:01;103090.69;;;6.91;58.86
75933;BME280;64803;52.356;5.310;2023-03-01T14:06:30;103092.03;;;6.84;57.55
75933;BME280;64803;52.356;5.310;2023-03-01T14:19:40;103075.63;;;6.90;57.05
75933;BME280;64803;52.356;5.310;2023-03-01T14:22:18;103071.66;;;6.83;55.89
75933;BME280;64803;52.356;5.310;2023-03-01T14:24:52;103063.53;;;6.84;56.75
75933;BME280;64803;52.356;5.310;2023-03-01T14:27:20;102934.56;;;6.17;56.25
75933;BME280;64803;52.356;5.310;2023-03-01T14:30:00;103060.75;;;6.86;54.73
75933;BME280;64803;52.356;5.310;2023-03-01T14:32:31;103045.38;;;6.90;55.32
75933;BME280;64803;52.356;5.310;2023-03-01T14:34:59;103049.31;;;6.84;54.69
75933;BME280;64803;52.356;5.310;2023-03-01T14:37:33;103046.25;;;6.90;54.58
75933;BME280;64803;52.356;5.310;2023-03-01T14:40:03;103040.44;;;6.83;55.78
75933;BME280;64803;52.356;5.310;2023-03-01T14:42:34;102923.66;;;6.20;57.84